Terminal Aerodrome Forecast
Issued by NWS

Home | Current Version | Previous Version | Text Only | Print | Product List | Glossary On
Versions: 1 2 3 4 5 6 7 8 9 10 11 12 13 14 15 16 17 18 19 20 21 22 23 24 25 26 27 28 29 30 31 32 33 34 35 36 37 38 39 40 41 42 43 44
000
FTUS41 KALY 241503 AAB
TAFPSF
TAF AMD
KPSF 241503Z 2415/2512 00000KT 1 1/2SM BR OVC002
      TEMPO 2415/2417 3SM BR SCT002 OVC070
     FM241700 19006KT P6SM VCSH BKN015 OVC025
     FM242000 19008G15KT P6SM SCT015 BKN045
     FM250300 20008KT P6SM OVC015
     FM250800 17004KT 2SM BR OVC008=

USA.gov is the U.S. government's official web portal to all federal, state and local government web resources and services.